sensor_id;sensor_type;location;lat;lon;timestamp;P1;durP1;ratioP1;P2;durP2;ratioP2
76332;SDS011;71254;53.010;6.508;2024-01-15T00:01:56;8.65;;;2.00;;
76332;SDS011;71254;53.010;6.508;2024-01-15T00:04:21;12.68;;;2.40;;
76332;SDS011;71254;53.010;6.508;2024-01-15T00:06:47;5.32;;;1.58;;
76332;SDS011;71254;53.010;6.508;2024-01-15T00:09:14;12.43;;;2.42;;
76332;SDS011;71254;53.010;6.508;2024-01-15T00:11:39;8.32;;;1.67;;
76332;SDS011;71254;53.010;6.508;2024-01-15T00:14:05;7.07;;;1.58;;
76332;SDS011;71254;53.010;6.508;2024-01-15T00:16:31;5.85;;;1.85;;
76332;SDS011;71254;53.010;6.508;2024-01-15T00:18:56;9.90;;;1.85;;
76332;SDS011;71254;53.010;6.508;2024-01-15T00:21:22;6.68;;;1.80;;
76332;SDS011;71254;53.010;6.508;2024-01-15T00:23:48;9.57;;;2.17;;
76332;SDS011;71254;53.010;6.508;2024-01-15T00:26:14;3.38;;;1.45;;
76332;SDS011;71254;53.010;6.508;2024-01-15T00:28:40;10.70;;;1.80;;
76332;SDS011;71254;53.010;6.508;2024-01-15T00:31:05;7.45;;;2.00;;
76332;SDS011;71254;53.010;6.508;2024-01-15T00:33:31;9.40;;;1.83;;
76332;SDS011;71254;53.010;6.508;2024-01-15T00:35:57;8.48;;;2.00;;
76332;SDS011;71254;53.010;6.508;2024-01-15T00:38:22;7.88;;;1.63;;
76332;SDS011;71254;53.010;6.508;2024-01-15T00:40:48;15.45;;;2.35;;
76332;SDS011;71254;53.010;6.508;2024-01-15T00:43:14;6.55;;;1.52;;
76332;SDS011;71254;53.010;6.508;2024-01-15T00:45:40;9.23;;;2.03;;
76332;SDS011;71254;53.010;6.508;2024-01-15T00:48:05;12.02;;;1.77;;
76332;SDS011;71254;53.010;6.508;2024-01-15T00:50:31;8.07;;;1.88;;
76332;SDS011;71254;53.010;6.508;2024-01-15T00:52:57;9.23;;;1.80;;
76332;SDS011;71254;53.010;6.508;2024-01-15T00:55:23;5.75;;;1.88;;
76332;SDS011;71254;53.010;6.508;2024-01-15T00:57:48;8.70;;;1.90;;
76332;SDS011;71254;53.010;6.508;2024-01-15T01:00:14;7.85;;;1.90;;
76332;SDS011;71254;53.010;6.508;2024-01-15T01:02:39;9.93;;;1.77;;
76332;SDS011;71254;53.010;6.508;2024-01-15T01:05:05;9.68;;;1.77;;
76332;SDS011;71254;53.010;6.508;2024-01-15T01:07:31;12.32;;;1.80;;
76332;SDS011;71254;53.010;6.508;2024-01-15T01:09:57;11.38;;;2.17;;
76332;SDS011;71254;53.010;6.508;2024-01-15T01:12:22;11.65;;;1.80;;
76332;SDS011;71254;53.010;6.508;2024-01-15T01:14:48;7.93;;;1.48;;
76332;SDS011;71254;53.010;6.508;2024-01-15T01:17:13;7.90;;;1.90;;
76332;SDS011;71254;53.010;6.508;2024-01-15T01:19:39;7.55;;;2.25;;
76332;SDS011;71254;53.010;6.508;2024-01-15T01:22:04;8.13;;;1.77;;
76332;SDS011;71254;53.010;6.508;2024-01-15T01:24:30;7.93;;;1.65;;
76332;SDS011;71254;53.010;6.508;2024-01-15T01:26:56;9.05;;;1.63;;
76332;SDS011;71254;53.010;6.508;2024-01-15T01:29:21;8.20;;;1.70;;
76332;SDS011;71254;53.010;6.508;2024-01-15T01:31:48;10.32;;;1.67;;
76332;SDS011;71254;53.010;6.508;2024-01-15T01:34:14;10.73;;;1.80;;
76332;SDS011;71254;53.010;6.508;2024-01-15T01:36:41;8.73;;;1.23;;
76332;SDS011;71254;53.010;6.508;2024-01-15T01:39:07;5.00;;;1.55;;
76332;SDS011;71254;53.010;6.508;2024-01-15T01:41:36;9.77;;;1.67;;
76332;SDS011;71254;53.010;6.508;2024-01-15T01:44:03;7.03;;;1.48;;
76332;SDS011;71254;53.010;6.508;2024-01-15T01:46:28;5.97;;;1.30;;
76332;SDS011;71254;53.010;6.508;2024-01-15T01:48:54;8.35;;;1.02;;
76332;SDS011;71254;53.010;6.508;2024-01-15T01:51:21;8.30;;;1.30;;
76332;SDS011;71254;53.010;6.508;2024-01-15T01:53:49;2.38;;;0.70;;
76332;SDS011;71254;53.010;6.508;2024-01-15T01:56:15;2.90;;;0.90;;
76332;SDS011;71254;53.010;6.508;2024-01-15T01:58:42;4.97;;;0.88;;
76332;SDS011;71254;53.010;6.508;2024-01-15T02:01:09;2.90;;;0.88;;
76332;SDS011;71254;53.010;6.508;2024-01-15T02:03:35;4.95;;;1.15;;
76332;SDS011;71254;53.010;6.508;2024-01-15T02:06:01;3.88;;;0.80;;
76332;SDS011;71254;53.010;6.508;2024-01-15T02:08:26;3.95;;;0.70;;
76332;SDS011;71254;53.010;6.508;2024-01-15T02:10:52;2.78;;;0.68;;
76332;SDS011;71254;53.010;6.508;2024-01-15T02:13:18;3.65;;;0.82;;
76332;SDS011;71254;53.010;6.508;2024-01-15T02:15:45;1.40;;;0.55;;
76332;SDS011;71254;53.010;6.508;2024-01-15T02:18:11;4.60;;;1.02;;
76332;SDS011;71254;53.010;6.508;2024-01-15T02:20:36;4.05;;;0.70;;
76332;SDS011;71254;53.010;6.508;2024-01-15T02:25:41;5.15;;;1.00;;
76332;SDS011;71254;53.010;6.508;2024-01-15T02:28:09;7.90;;;1.52;;
76332;SDS011;71254;53.010;6.508;2024-01-15T02:30:43;8.43;;;1.73;;
76332;SDS011;71254;53.010;6.508;2024-01-15T02:33:09;5.47;;;1.65;;
76332;SDS011;71254;53.010;6.508;2024-01-15T02:35:36;14.15;;;1.60;;
76332;SDS011;71254;53.010;6.508;2024-01-15T02:38:02;6.38;;;1.92;;
76332;SDS011;71254;53.010;6.508;2024-01-15T02:40:31;10.23;;;1.95;;
76332;SDS011;71254;53.010;6.508;2024-01-15T02:42:57;5.75;;;1.85;;
76332;SDS011;71254;53.010;6.508;2024-01-15T02:45:26;6.30;;;1.95;;
76332;SDS011;71254;53.010;6.508;2024-01-15T02:47:52;10.52;;;2.10;;
76332;SDS011;71254;53.010;6.508;2024-01-15T02:50:18;13.35;;;2.03;;
76332;SDS011;71254;53.010;6.508;2024-01-15T02:52:43;7.72;;;1.92;;
76332;SDS011;71254;53.010;6.508;2024-01-15T02:55:09;7.35;;;2.75;;
76332;SDS011;71254;53.010;6.508;2024-01-15T02:57:35;12.65;;;2.70;;
76332;SDS011;71254;53.010;6.508;2024-01-15T03:00:00;11.57;;;2.10;;
76332;SDS011;71254;53.010;6.508;2024-01-15T03:02:27;10.57;;;2.45;;
76332;SDS011;71254;53.010;6.508;2024-01-15T03:04:52;10.00;;;3.00;;
76332;SDS011;71254;53.010;6.508;2024-01-15T03:07:18;11.05;;;1.90;;
76332;SDS011;71254;53.010;6.508;2024-01-15T03:09:43;10.35;;;2.38;;
76332;SDS011;71254;53.010;6.508;2024-01-15T03:12:09;9.95;;;2.35;;
76332;SDS011;71254;53.010;6.508;2024-01-15T03:14:36;11.40;;;2.20;;
76332;SDS011;71254;53.010;6.508;2024-01-15T03:17:01;12.30;;;2.45;;
76332;SDS011;71254;53.010;6.508;2024-01-15T03:19:27;13.23;;;2.55;;
76332;SDS011;71254;53.010;6.508;2024-01-15T03:21:53;10.63;;;1.98;;
76332;SDS011;71254;53.010;6.508;2024-01-15T03:24:20;15.98;;;2.55;;
76332;SDS011;71254;53.010;6.508;2024-01-15T03:26:45;9.65;;;1.83;;
76332;SDS011;71254;53.010;6.508;2024-01-15T03:29:11;11.25;;;2.92;;
76332;SDS011;71254;53.010;6.508;2024-01-15T03:31:36;9.23;;;2.40;;
76332;SDS011;71254;53.010;6.508;2024-01-15T03:34:02;10.38;;;1.98;;
76332;SDS011;71254;53.010;6.508;2024-01-15T03:36:28;14.43;;;2.40;;
76332;SDS011;71254;53.010;6.508;2024-01-15T03:38:54;7.47;;;2.10;;
76332;SDS011;71254;53.010;6.508;2024-01-15T03:41:19;7.22;;;2.00;;
76332;SDS011;71254;53.010;6.508;2024-01-15T03:43:45;9.25;;;1.95;;
76332;SDS011;71254;53.010;6.508;2024-01-15T03:46:11;14.48;;;2.20;;
76332;SDS011;71254;53.010;6.508;2024-01-15T03:48:37;9.45;;;2.08;;
76332;SDS011;71254;53.010;6.508;2024-01-15T03:51:03;6.68;;;1.92;;
76332;SDS011;71254;53.010;6.508;2024-01-15T03:53:29;8.10;;;1.95;;
76332;SDS011;71254;53.010;6.508;2024-01-15T03:55:54;7.30;;;1.98;;
76332;SDS011;71254;53.010;6.508;2024-01-15T03:58:20;6.85;;;1.80;;
76332;SDS011;71254;53.010;6.508;2024-01-15T04:00:46;8.90;;;1.75;;
76332;SDS011;71254;53.010;6.508;2024-01-15T04:03:11;8.98;;;2.42;;
76332;SDS011;71254;53.010;6.508;2024-01-15T04:05:37;5.35;;;1.30;;
76332;SDS011;71254;53.010;6.508;2024-01-15T04:08:03;6.35;;;1.98;;
76332;SDS011;71254;53.010;6.508;2024-01-15T04:10:29;12.20;;;1.88;;
76332;SDS011;71254;53.010;6.508;2024-01-15T04:12:55;10.90;;;2.47;;
76332;SDS011;71254;53.010;6.508;2024-01-15T04:15:21;10.50;;;2.00;;
76332;SDS011;71254;53.010;6.508;2024-01-15T04:17:46;9.82;;;1.70;;
76332;SDS011;71254;53.010;6.508;2024-01-15T04:20:12;5.13;;;1.33;;
76332;SDS011;71254;53.010;6.508;2024-01-15T04:22:37;8.18;;;1.60;;
76332;SDS011;71254;53.010;6.508;2024-01-15T04:25:03;8.10;;;1.90;;
76332;SDS011;71254;53.010;6.508;2024-01-15T04:27:32;10.02;;;1.50;;
76332;SDS011;71254;53.010;6.508;2024-01-15T04:29:58;14.32;;;2.10;;
76332;SDS011;71254;53.010;6.508;2024-01-15T04:32:23;8.13;;;1.60;;
76332;SDS011;71254;53.010;6.508;2024-01-15T04:34:49;6.45;;;1.48;;
76332;SDS011;71254;53.010;6.508;2024-01-15T04:37:14;5.35;;;1.40;;
76332;SDS011;71254;53.010;6.508;2024-01-15T04:39:40;6.65;;;1.20;;
76332;SDS011;71254;53.010;6.508;2024-01-15T04:42:06;4.47;;;0.88;;
76332;SDS011;71254;53.010;6.508;2024-01-15T04:44:31;4.88;;;1.13;;
76332;SDS011;71254;53.010;6.508;2024-01-15T04:46:57;5.72;;;1.13;;
76332;SDS011;71254;53.010;6.508;2024-01-15T04:49:22;4.93;;;1.15;;
76332;SDS011;71254;53.010;6.508;2024-01-15T04:51:51;3.13;;;0.85;;
76332;SDS011;71254;53.010;6.508;2024-01-15T04:54:16;3.42;;;0.93;;
76332;SDS011;71254;53.010;6.508;2024-01-15T04:56:43;3.47;;;0.85;;
76332;SDS011;71254;53.010;6.508;2024-01-15T04:59:09;9.02;;;1.13;;
76332;SDS011;71254;53.010;6.508;2024-01-15T05:01:35;8.20;;;1.58;;
76332;SDS011;71254;53.010;6.508;2024-01-15T05:04:01;4.40;;;1.48;;
76332;SDS011;71254;53.010;6.508;2024-01-15T05:06:27;4.35;;;1.13;;
76332;SDS011;71254;53.010;6.508;2024-01-15T05:08:53;6.00;;;1.40;;
76332;SDS011;71254;53.010;6.508;2024-01-15T05:11:18;5.95;;;1.70;;
76332;SDS011;71254;53.010;6.508;2024-01-15T05:13:44;5.68;;;1.17;;
76332;SDS011;71254;53.010;6.508;2024-01-15T05:16:09;5.38;;;0.88;;
76332;SDS011;71254;53.010;6.508;2024-01-15T05:18:35;3.85;;;1.10;;
76332;SDS011;71254;53.010;6.508;2024-01-15T05:21:02;7.75;;;1.10;;
76332;SDS011;71254;53.010;6.508;2024-01-15T05:23:28;7.07;;;1.27;;
76332;SDS011;71254;53.010;6.508;2024-01-15T05:25:56;7.78;;;1.10;;
76332;SDS011;71254;53.010;6.508;2024-01-15T05:28:22;4.75;;;1.27;;
76332;SDS011;71254;53.010;6.508;2024-01-15T05:30:53;7.20;;;1.63;;
76332;SDS011;71254;53.010;6.508;2024-01-15T05:33:20;6.55;;;1.63;;
76332;SDS011;71254;53.010;6.508;2024-01-15T05:35:49;6.50;;;1.52;;
76332;SDS011;71254;53.010;6.508;2024-01-15T05:38:15;4.55;;;1.45;;
76332;SDS011;71254;53.010;6.508;2024-01-15T05:40:41;5.13;;;1.40;;
76332;SDS011;71254;53.010;6.508;2024-01-15T05:43:07;3.88;;;1.20;;
76332;SDS011;71254;53.010;6.508;2024-01-15T05:45:34;6.32;;;1.60;;
76332;SDS011;71254;53.010;6.508;2024-01-15T05:48:00;2.83;;;0.88;;
76332;SDS011;71254;53.010;6.508;2024-01-15T05:50:26;5.75;;;1.10;;
76332;SDS011;71254;53.010;6.508;2024-01-15T05:52:52;7.22;;;1.90;;
76332;SDS011;71254;53.010;6.508;2024-01-15T05:55:19;7.40;;;1.58;;
76332;SDS011;71254;53.010;6.508;2024-01-15T05:57:45;7.30;;;1.63;;
76332;SDS011;71254;53.010;6.508;2024-01-15T06:00:10;8.18;;;1.35;;
76332;SDS011;71254;53.010;6.508;2024-01-15T06:02:37;6.47;;;1.30;;
76332;SDS011;71254;53.010;6.508;2024-01-15T06:05:03;6.38;;;1.65;;
76332;SDS011;71254;53.010;6.508;2024-01-15T06:07:29;5.55;;;1.85;;
76332;SDS011;71254;53.010;6.508;2024-01-15T06:09:55;4.53;;;1.52;;
76332;SDS011;71254;53.010;6.508;2024-01-15T06:12:22;8.48;;;1.92;;
76332;SDS011;71254;53.010;6.508;2024-01-15T06:14:48;7.35;;;2.00;;
76332;SDS011;71254;53.010;6.508;2024-01-15T06:17:13;13.23;;;2.05;;
76332;SDS011;71254;53.010;6.508;2024-01-15T06:19:39;6.80;;;1.63;;
76332;SDS011;71254;53.010;6.508;2024-01-15T06:22:05;6.25;;;1.65;;
76332;SDS011;71254;53.010;6.508;2024-01-15T06:24:30;8.82;;;1.67;;
76332;SDS011;71254;53.010;6.508;2024-01-15T06:26:56;10.65;;;2.03;;
76332;SDS011;71254;53.010;6.508;2024-01-15T06:29:21;7.55;;;1.80;;
76332;SDS011;71254;53.010;6.508;2024-01-15T06:31:50;10.98;;;2.30;;
76332;SDS011;71254;53.010;6.508;2024-01-15T06:34:19;17.13;;;2.22;;
76332;SDS011;71254;53.010;6.508;2024-01-15T06:36:44;11.30;;;2.63;;
76332;SDS011;71254;53.010;6.508;2024-01-15T06:39:11;10.13;;;2.25;;
76332;SDS011;71254;53.010;6.508;2024-01-15T06:41:37;14.32;;;2.45;;
76332;SDS011;71254;53.010;6.508;2024-01-15T06:44:09;10.00;;;2.08;;
76332;SDS011;71254;53.010;6.508;2024-01-15T06:46:36;11.20;;;2.83;;
76332;SDS011;71254;53.010;6.508;2024-01-15T06:49:01;11.90;;;2.22;;
76332;SDS011;71254;53.010;6.508;2024-01-15T06:51:27;8.40;;;2.40;;
76332;SDS011;71254;53.010;6.508;2024-01-15T06:53:54;7.47;;;1.92;;
76332;SDS011;71254;53.010;6.508;2024-01-15T06:56:19;11.13;;;2.42;;
76332;SDS011;71254;53.010;6.508;2024-01-15T06:58:45;14.77;;;2.70;;
76332;SDS011;71254;53.010;6.508;2024-01-15T07:01:10;5.75;;;1.92;;
76332;SDS011;71254;53.010;6.508;2024-01-15T07:03:36;9.77;;;2.25;;
76332;SDS011;71254;53.010;6.508;2024-01-15T07:06:03;8.90;;;1.73;;
76332;SDS011;71254;53.010;6.508;2024-01-15T07:08:28;6.90;;;2.40;;
76332;SDS011;71254;53.010;6.508;2024-01-15T07:10:54;6.70;;;2.00;;
76332;SDS011;71254;53.010;6.508;2024-01-15T07:13:20;6.70;;;2.03;;
76332;SDS011;71254;53.010;6.508;2024-01-15T07:15:45;11.30;;;1.92;;
76332;SDS011;71254;53.010;6.508;2024-01-15T07:18:11;11.40;;;2.25;;
76332;SDS011;71254;53.010;6.508;2024-01-15T07:20:37;10.55;;;2.47;;
76332;SDS011;71254;53.010;6.508;2024-01-15T07:23:02;9.10;;;1.52;;
76332;SDS011;71254;53.010;6.508;2024-01-15T07:25:29;11.00;;;2.08;;
76332;SDS011;71254;53.010;6.508;2024-01-15T07:27:54;9.25;;;2.20;;
76332;SDS011;71254;53.010;6.508;2024-01-15T07:30:20;9.65;;;1.33;;
76332;SDS011;71254;53.010;6.508;2024-01-15T07:32:47;11.82;;;2.75;;
76332;SDS011;71254;53.010;6.508;2024-01-15T07:35:13;7.25;;;1.70;;
76332;SDS011;71254;53.010;6.508;2024-01-15T07:37:40;6.15;;;1.70;;
76332;SDS011;71254;53.010;6.508;2024-01-15T07:40:06;12.07;;;2.17;;
76332;SDS011;71254;53.010;6.508;2024-01-15T07:42:33;15.23;;;2.80;;
76332;SDS011;71254;53.010;6.508;2024-01-15T07:45:00;9.52;;;2.22;;
76332;SDS011;71254;53.010;6.508;2024-01-15T07:47:26;7.28;;;2.00;;
76332;SDS011;71254;53.010;6.508;2024-01-15T07:49:52;11.32;;;2.40;;
76332;SDS011;71254;53.010;6.508;2024-01-15T07:52:18;7.63;;;1.85;;
76332;SDS011;71254;53.010;6.508;2024-01-15T07:54:44;8.75;;;2.67;;
76332;SDS011;71254;53.010;6.508;2024-01-15T07:57:10;10.55;;;2.42;;
76332;SDS011;71254;53.010;6.508;2024-01-15T07:59:36;6.80;;;1.67;;
76332;SDS011;71254;53.010;6.508;2024-01-15T08:02:01;5.82;;;2.08;;
76332;SDS011;71254;53.010;6.508;2024-01-15T08:04:27;10.88;;;1.52;;
76332;SDS011;71254;53.010;6.508;2024-01-15T08:06:53;8.55;;;1.92;;
76332;SDS011;71254;53.010;6.508;2024-01-15T08:09:19;7.82;;;1.77;;
76332;SDS011;71254;53.010;6.508;2024-01-15T08:11:44;12.55;;;2.10;;
76332;SDS011;71254;53.010;6.508;2024-01-15T08:14:11;9.85;;;1.90;;
76332;SDS011;71254;53.010;6.508;2024-01-15T08:16:38;11.82;;;2.50;;
76332;SDS011;71254;53.010;6.508;2024-01-15T08:19:04;8.30;;;2.40;;
76332;SDS011;71254;53.010;6.508;2024-01-15T08:21:30;6.97;;;2.08;;
76332;SDS011;71254;53.010;6.508;2024-01-15T08:24:00;6.97;;;2.75;;
76332;SDS011;71254;53.010;6.508;2024-01-15T08:26:30;11.02;;;2.55;;
76332;SDS011;71254;53.010;6.508;2024-01-15T08:28:57;6.95;;;1.92;;
76332;SDS011;71254;53.010;6.508;2024-01-15T08:31:31;8.07;;;2.03;;
76332;SDS011;71254;53.010;6.508;2024-01-15T08:33:57;11.95;;;2.42;;
76332;SDS011;71254;53.010;6.508;2024-01-15T08:36:24;8.38;;;2.33;;
76332;SDS011;71254;53.010;6.508;2024-01-15T08:38:50;8.20;;;2.20;;
76332;SDS011;71254;53.010;6.508;2024-01-15T08:41:15;10.80;;;2.80;;
76332;SDS011;71254;53.010;6.508;2024-01-15T08:43:41;8.57;;;2.15;;
76332;SDS011;71254;53.010;6.508;2024-01-15T08:46:07;8.98;;;2.20;;
76332;SDS011;71254;53.010;6.508;2024-01-15T08:48:32;8.57;;;2.50;;
76332;SDS011;71254;53.010;6.508;2024-01-15T08:50:58;5.65;;;1.60;;
76332;SDS011;71254;53.010;6.508;2024-01-15T08:53:23;9.68;;;2.22;;
76332;SDS011;71254;53.010;6.508;2024-01-15T08:55:49;7.50;;;2.30;;
76332;SDS011;71254;53.010;6.508;2024-01-15T08:58:15;9.00;;;2.15;;
76332;SDS011;71254;53.010;6.508;2024-01-15T09:00:43;7.85;;;2.22;;
76332;SDS011;71254;53.010;6.508;2024-01-15T09:03:09;6.47;;;1.85;;
76332;SDS011;71254;53.010;6.508;2024-01-15T09:05:34;4.93;;;1.15;;
76332;SDS011;71254;53.010;6.508;2024-01-15T09:08:00;6.82;;;1.10;;
76332;SDS011;71254;53.010;6.508;2024-01-15T09:10:26;5.97;;;1.60;;
76332;SDS011;71254;53.010;6.508;2024-01-15T09:12:51;7.28;;;1.55;;
76332;SDS011;71254;53.010;6.508;2024-01-15T09:15:17;1.77;;;0.90;;
76332;SDS011;71254;53.010;6.508;2024-01-15T09:17:43;4.30;;;1.40;;
76332;SDS011;71254;53.010;6.508;2024-01-15T09:20:09;3.60;;;1.33;;
76332;SDS011;71254;53.010;6.508;2024-01-15T09:22:37;4.40;;;1.20;;
76332;SDS011;71254;53.010;6.508;2024-01-15T09:25:05;4.85;;;1.48;;
76332;SDS011;71254;53.010;6.508;2024-01-15T09:27:33;6.40;;;1.35;;
76332;SDS011;71254;53.010;6.508;2024-01-15T09:29:59;6.35;;;1.40;;
76332;SDS011;71254;53.010;6.508;2024-01-15T09:32:24;8.07;;;1.40;;
76332;SDS011;71254;53.010;6.508;2024-01-15T09:34:50;4.68;;;1.20;;
76332;SDS011;71254;53.010;6.508;2024-01-15T09:37:16;6.28;;;1.80;;
76332;SDS011;71254;53.010;6.508;2024-01-15T09:39:41;4.20;;;1.30;;
76332;SDS011;71254;53.010;6.508;2024-01-15T09:42:07;7.20;;;1.67;;
76332;SDS011;71254;53.010;6.508;2024-01-15T09:44:33;6.25;;;1.55;;
76332;SDS011;71254;53.010;6.508;2024-01-15T09:46:59;8.40;;;1.67;;
76332;SDS011;71254;53.010;6.508;2024-01-15T09:49:26;7.30;;;2.45;;
76332;SDS011;71254;53.010;6.508;2024-01-15T09:51:52;8.50;;;1.95;;
76332;SDS011;71254;53.010;6.508;2024-01-15T09:54:19;4.35;;;1.23;;
76332;SDS011;71254;53.010;6.508;2024-01-15T09:56:46;7.82;;;1.67;;
76332;SDS011;71254;53.010;6.508;2024-01-15T09:59:16;6.55;;;1.95;;
76332;SDS011;71254;53.010;6.508;2024-01-15T10:01:43;8.85;;;2.85;;
76332;SDS011;71254;53.010;6.508;2024-01-15T10:04:10;8.35;;;1.50;;
76332;SDS011;71254;53.010;6.508;2024-01-15T10:06:37;5.80;;;1.63;;
76332;SDS011;71254;53.010;6.508;2024-01-15T10:09:04;11.23;;;1.90;;
76332;SDS011;71254;53.010;6.508;2024-01-15T10:11:33;13.05;;;1.90;;
76332;SDS011;71254;53.010;6.508;2024-01-15T10:13:58;7.93;;;2.47;;
76332;SDS011;71254;53.010;6.508;2024-01-15T10:16:25;11.55;;;2.08;;
76332;SDS011;71254;53.010;6.508;2024-01-15T10:18:51;8.82;;;2.25;;
76332;SDS011;71254;53.010;6.508;2024-01-15T10:21:16;11.73;;;2.25;;
76332;SDS011;71254;53.010;6.508;2024-01-15T10:23:42;6.65;;;2.05;;
76332;SDS011;71254;53.010;6.508;2024-01-15T10:26:08;8.82;;;2.10;;
76332;SDS011;71254;53.010;6.508;2024-01-15T10:28:33;8.07;;;1.83;;
76332;SDS011;71254;53.010;6.508;2024-01-15T10:30:59;9.90;;;2.53;;
76332;SDS011;71254;53.010;6.508;2024-01-15T10:33:25;8.55;;;2.20;;
76332;SDS011;71254;53.010;6.508;2024-01-15T10:35:55;5.38;;;1.42;;
76332;SDS011;71254;53.010;6.508;2024-01-15T10:38:22;9.02;;;1.55;;
76332;SDS011;71254;53.010;6.508;2024-01-15T10:40:52;4.88;;;1.60;;
76332;SDS011;71254;53.010;6.508;2024-01-15T10:43:18;6.00;;;1.45;;
76332;SDS011;71254;53.010;6.508;2024-01-15T10:45:45;5.70;;;1.88;;
76332;SDS011;71254;53.010;6.508;2024-01-15T10:48:11;6.03;;;1.10;;
76332;SDS011;71254;53.010;6.508;2024-01-15T10:50:37;3.50;;;0.93;;
76332;SDS011;71254;53.010;6.508;2024-01-15T10:53:04;5.40;;;1.25;;
76332;SDS011;71254;53.010;6.508;2024-01-15T10:55:30;4.28;;;1.30;;
76332;SDS011;71254;53.010;6.508;2024-01-15T10:58:00;2.97;;;1.08;;
76332;SDS011;71254;53.010;6.508;2024-01-15T11:00:28;4.50;;;1.33;;
76332;SDS011;71254;53.010;6.508;2024-01-15T11:02:54;4.47;;;1.00;;
76332;SDS011;71254;53.010;6.508;2024-01-15T11:05:20;3.08;;;1.00;;
76332;SDS011;71254;53.010;6.508;2024-01-15T11:07:55;3.80;;;0.90;;
76332;SDS011;71254;53.010;6.508;2024-01-15T11:10:40;3.13;;;0.80;;
76332;SDS011;71254;53.010;6.508;2024-01-15T11:13:48;3.88;;;1.15;;
76332;SDS011;71254;53.010;6.508;2024-01-15T11:15:58;5.00;;;0.85;;
76332;SDS011;71254;53.010;6.508;2024-01-15T11:18:28;3.78;;;0.90;;
76332;SDS011;71254;53.010;6.508;2024-01-15T11:26:26;3.80;;;0.90;;
76332;SDS011;71254;53.010;6.508;2024-01-15T11:28:56;3.72;;;1.02;;
76332;SDS011;71254;53.010;6.508;2024-01-15T11:34:10;4.97;;;1.10;;
76332;SDS011;71254;53.010;6.508;2024-01-15T11:41:57;6.05;;;1.10;;
76332;SDS011;71254;53.010;6.508;2024-01-15T11:44:23;3.60;;;1.05;;
76332;SDS011;71254;53.010;6.508;2024-01-15T11:46:57;6.38;;;1.00;;
76332;SDS011;71254;53.010;6.508;2024-01-15T11:49:30;4.82;;;1.00;;
76332;SDS011;71254;53.010;6.508;2024-01-15T11:52:11;2.28;;;1.00;;
76332;SDS011;71254;53.010;6.508;2024-01-15T11:54:49;3.00;;;1.00;;
76332;SDS011;71254;53.010;6.508;2024-01-15T11:57:25;5.32;;;1.20;;
76332;SDS011;71254;53.010;6.508;2024-01-15T11:59:58;6.10;;;1.23;;
76332;SDS011;71254;53.010;6.508;2024-01-15T12:02:24;3.17;;;0.93;;
76332;SDS011;71254;53.010;6.508;2024-01-15T12:04:49;4.78;;;0.93;;
76332;SDS011;71254;53.010;6.508;2024-01-15T12:07:15;3.40;;;0.65;;
76332;SDS011;71254;53.010;6.508;2024-01-15T12:09:44;2.22;;;0.50;;
76332;SDS011;71254;53.010;6.508;2024-01-15T12:12:09;2.08;;;0.80;;
76332;SDS011;71254;53.010;6.508;2024-01-15T12:14:47;4.20;;;1.02;;
76332;SDS011;71254;53.010;6.508;2024-01-15T12:17:15;2.47;;;1.10;;
76332;SDS011;71254;53.010;6.508;2024-01-15T12:19:41;3.03;;;0.85;;
76332;SDS011;71254;53.010;6.508;2024-01-15T12:22:08;3.83;;;0.90;;
76332;SDS011;71254;53.010;6.508;2024-01-15T12:24:34;3.67;;;1.23;;
76332;SDS011;71254;53.010;6.508;2024-01-15T12:27:00;2.30;;;0.85;;
76332;SDS011;71254;53.010;6.508;2024-01-15T12:29:26;1.48;;;0.80;;
76332;SDS011;71254;53.010;6.508;2024-01-15T12:31:53;6.07;;;1.48;;
76332;SDS011;71254;53.010;6.508;2024-01-15T12:34:18;3.15;;;1.02;;
76332;SDS011;71254;53.010;6.508;2024-01-15T12:36:47;6.88;;;1.20;;
76332;SDS011;71254;53.010;6.508;2024-01-15T12:39:12;4.68;;;1.30;;
76332;SDS011;71254;53.010;6.508;2024-01-15T12:41:38;5.63;;;1.25;;
76332;SDS011;71254;53.010;6.508;2024-01-15T12:44:04;5.10;;;1.77;;
76332;SDS011;71254;53.010;6.508;2024-01-15T12:46:30;4.40;;;1.50;;
76332;SDS011;71254;53.010;6.508;2024-01-15T12:48:56;5.63;;;1.63;;
76332;SDS011;71254;53.010;6.508;2024-01-15T12:51:25;7.30;;;1.27;;
76332;SDS011;71254;53.010;6.508;2024-01-15T12:53:52;3.45;;;1.30;;
76332;SDS011;71254;53.010;6.508;2024-01-15T12:56:18;5.68;;;1.65;;
76332;SDS011;71254;53.010;6.508;2024-01-15T12:58:44;3.40;;;1.27;;
76332;SDS011;71254;53.010;6.508;2024-01-15T13:01:09;5.70;;;1.33;;
76332;SDS011;71254;53.010;6.508;2024-01-15T13:03:35;7.97;;;2.30;;
76332;SDS011;71254;53.010;6.508;2024-01-15T13:06:01;5.70;;;1.40;;
76332;SDS011;71254;53.010;6.508;2024-01-15T13:08:26;5.05;;;1.30;;
76332;SDS011;71254;53.010;6.508;2024-01-15T13:10:54;4.60;;;1.35;;
76332;SDS011;71254;53.010;6.508;2024-01-15T13:13:22;6.07;;;1.30;;
76332;SDS011;71254;53.010;6.508;2024-01-15T13:15:48;3.58;;;1.15;;
76332;SDS011;71254;53.010;6.508;2024-01-15T13:18:13;6.82;;;1.30;;
76332;SDS011;71254;53.010;6.508;2024-01-15T13:20:39;3.83;;;1.05;;
76332;SDS011;71254;53.010;6.508;2024-01-15T13:23:05;3.65;;;1.15;;
76332;SDS011;71254;53.010;6.508;2024-01-15T13:25:31;3.60;;;1.13;;
76332;SDS011;71254;53.010;6.508;2024-01-15T13:28:00;6.70;;;1.35;;
76332;SDS011;71254;53.010;6.508;2024-01-15T13:30:27;3.88;;;0.77;;
76332;SDS011;71254;53.010;6.508;2024-01-15T13:32:56;3.30;;;1.00;;
76332;SDS011;71254;53.010;6.508;2024-01-15T13:35:23;5.35;;;1.00;;
76332;SDS011;71254;53.010;6.508;2024-01-15T13:37:48;4.15;;;1.17;;
76332;SDS011;71254;53.010;6.508;2024-01-15T13:40:14;5.35;;;1.30;;
76332;SDS011;71254;53.010;6.508;2024-01-15T13:42:45;5.85;;;1.40;;
76332;SDS011;71254;53.010;6.508;2024-01-15T13:45:11;4.22;;;1.20;;
76332;SDS011;71254;53.010;6.508;2024-01-15T13:47:39;6.90;;;1.38;;
76332;SDS011;71254;53.010;6.508;2024-01-15T13:50:06;7.38;;;1.55;;
76332;SDS011;71254;53.010;6.508;2024-01-15T13:52:35;4.70;;;1.13;;
76332;SDS011;71254;53.010;6.508;2024-01-15T13:55:01;5.53;;;1.10;;
76332;SDS011;71254;53.010;6.508;2024-01-15T13:57:26;4.57;;;1.38;;
76332;SDS011;71254;53.010;6.508;2024-01-15T13:59:52;3.45;;;1.20;;
76332;SDS011;71254;53.010;6.508;2024-01-15T14:02:18;4.85;;;1.35;;
76332;SDS011;71254;53.010;6.508;2024-01-15T14:04:45;8.35;;;1.67;;
76332;SDS011;71254;53.010;6.508;2024-01-15T14:07:11;5.88;;;1.90;;
76332;SDS011;71254;53.010;6.508;2024-01-15T14:09:36;6.35;;;1.60;;
76332;SDS011;71254;53.010;6.508;2024-01-15T14:12:03;7.03;;;1.52;;
76332;SDS011;71254;53.010;6.508;2024-01-15T14:14:29;8.52;;;1.40;;
76332;SDS011;71254;53.010;6.508;2024-01-15T14:16:54;7.78;;;1.60;;
76332;SDS011;71254;53.010;6.508;2024-01-15T14:19:20;9.10;;;1.65;;
76332;SDS011;71254;53.010;6.508;2024-01-15T14:21:46;5.05;;;1.40;;
76332;SDS011;71254;53.010;6.508;2024-01-15T14:24:11;6.22;;;2.00;;
76332;SDS011;71254;53.010;6.508;2024-01-15T14:26:37;9.93;;;1.98;;
76332;SDS011;71254;53.010;6.508;2024-01-15T14:29:02;6.53;;;2.10;;
76332;SDS011;71254;53.010;6.508;2024-01-15T14:31:28;6.50;;;1.85;;
76332;SDS011;71254;53.010;6.508;2024-01-15T14:33:54;5.57;;;1.55;;
76332;SDS011;71254;53.010;6.508;2024-01-15T14:36:23;9.97;;;2.03;;
76332;SDS011;71254;53.010;6.508;2024-01-15T14:38:49;6.28;;;1.77;;
76332;SDS011;71254;53.010;6.508;2024-01-15T14:41:15;10.27;;;1.80;;
76332;SDS011;71254;53.010;6.508;2024-01-15T14:43:41;5.30;;;1.70;;
76332;SDS011;71254;53.010;6.508;2024-01-15T14:46:07;6.07;;;1.85;;
76332;SDS011;71254;53.010;6.508;2024-01-15T14:48:33;10.02;;;2.20;;
76332;SDS011;71254;53.010;6.508;2024-01-15T14:50:58;6.57;;;1.80;;
76332;SDS011;71254;53.010;6.508;2024-01-15T14:53:24;12.43;;;2.13;;
76332;SDS011;71254;53.010;6.508;2024-01-15T14:55:49;8.02;;;1.70;;
76332;SDS011;71254;53.010;6.508;2024-01-15T14:58:15;7.60;;;1.70;;